Hauptseite
METAR-TAF:

METAR-TAF

Flughäfen :

Nagpur, Indien

Breite: 21-06N, Länge: 079-03E, Höhe: 308 m

Beobachtung

Neuester Wetterbericht von vor 42 Minuten, um 04:00 UTC
Wind 6 kt aus Süd/Südost
Temperatur 38°C
Luftfeuchtigkeit 17%
Luftdruck 1010 hPa
Sichtweite: 5000 m
Leicht bewölkt in der Höhe von 10000 ft
trockener Dunst

METAR: VANP 250400Z 16006KT 5000 HZ FEW100 38/09 Q1010 BECMG 6000

Zeit: 10:12 (04:42 UTC)

Prognose

Neuester Wetterbericht von vor 2 Stunden und 42 Minuten, um 02:00 UTC
Gültige Prognose vom 25 um 03 UTC bis 25 um 12 UTC
Wind 3 kt aus Südwest
Sichtweite: 3000 m
Aufgelockert bewölkt in der Höhe von 10000 ft
trockener Dunst
Übergehend zu
vom 25 um 06 UTC bis 25 um 08 UTC
Wind 10 kt aus Süd/Südwest
Sichtweite: 6000 m
Aufgelockert bewölkt in der Höhe von 2500 ft

TAF: VANP 250200Z 2503/2512 23003KT 3000 HZ SCT100 BECMG 2506/2508 20010KT 6000 SCT025

Wetterbeobachtungen und Prognosen von mehr als 4000 Flughäfen (METAR und TAF Bericht).

Die verfügbaren Stationen werden durch gelbe und rote Markierungen auf der Karte dargestellt.

Führen Sie die Maus auf sie, um den Namen der Station zu sehen.

Darauf klicken, um die Beobachtung von Wetterbeobachtungen und Prognosen zu sehen.

Um die Karte zu ändern : klicken Sie auf den grünen Tasten mit einem schwarzen Kreuz Zum Vergrößern, auf den grünen Button mit einem Gedankenstrich zu verkleinern, oder auf die grünen Pfeile für benachbarte Karten.


METAR-TAF: